createdAt,value
2022-08-17T00:03:47.963Z,19.6
2022-08-17T00:13:49.934Z,19.5
2022-08-17T00:23:51.807Z,19.3
2022-08-17T00:33:54.202Z,19.2
2022-08-17T00:43:56.583Z,19
2022-08-17T00:53:58.713Z,19
2022-08-17T01:04:00.688Z,19
2022-08-17T01:14:02.915Z,18.9
2022-08-17T01:24:04.850Z,18.8
2022-08-17T01:34:06.827Z,18.8
2022-08-17T01:44:09.109Z,18.6
2022-08-17T01:54:10.738Z,18.5
2022-08-17T02:04:13.266Z,18.5
2022-08-17T02:14:15.434Z,18.4
2022-08-17T02:24:17.944Z,18.1
2022-08-17T02:34:20.285Z,18
2022-08-17T02:44:39.518Z,17.9
2022-08-17T02:54:38.830Z,17.9
2022-08-17T03:04:26.640Z,17.6
2022-08-17T03:14:28.243Z,17.6
2022-08-17T03:24:30.522Z,17.7
2022-08-17T03:44:35.175Z,17.5
2022-08-17T03:54:36.914Z,17.6
2022-08-17T04:04:39.104Z,17.4
2022-08-17T04:14:51.594Z,17.4
2022-08-17T04:24:43.977Z,17.1
2022-08-17T04:34:45.934Z,17.3
2022-08-17T04:44:48.543Z,17.4
2022-08-17T04:54:50.368Z,17.5
2022-08-17T05:04:52.001Z,17.4
2022-08-17T05:14:54.570Z,17.7
2022-08-17T05:34:58.969Z,18.3
2022-08-17T05:45:01.574Z,18.5
2022-08-17T05:55:03.728Z,18.9
2022-08-17T06:05:06.021Z,19.1
2022-08-17T06:15:07.988Z,19.4
2022-08-17T06:25:10.930Z,19.8
2022-08-17T06:35:12.405Z,20.3
2022-08-17T06:45:14.037Z,20.9
2022-08-17T07:15:20.485Z,21.7
2022-08-17T07:35:31.190Z,22
2022-08-17T08:35:38.265Z,23.4
2022-08-17T09:15:46.230Z,24.8
2022-08-17T09:25:48.803Z,25.1
2022-08-17T09:35:51.224Z,25.2
2022-08-17T09:45:53.607Z,25.2
2022-08-17T10:05:57.258Z,25.3
2022-08-17T10:15:59.542Z,25.6
2022-08-17T10:26:01.788Z,25.4
2022-08-17T10:36:07.494Z,25.5
2022-08-17T10:46:09.315Z,25.2
2022-08-17T11:06:10.798Z,24.9
2022-08-17T11:16:13.037Z,24.6
2022-08-17T11:26:14.920Z,24.5
2022-08-17T11:36:17.474Z,24
2022-08-17T11:46:19.727Z,24
2022-08-17T11:56:21.634Z,23.9
2022-08-17T12:06:23.566Z,23.8
2022-08-17T12:16:26.097Z,23.7
2022-08-17T12:26:28.594Z,23.6
2022-08-17T12:36:30.882Z,23.5
2022-08-17T12:46:33.282Z,23.7
2022-08-17T12:56:35.917Z,24.2
2022-08-17T13:06:38.446Z,24.4
2022-08-17T13:16:40.169Z,24.8
2022-08-17T13:26:42.616Z,24.8
2022-08-17T13:36:45.259Z,25.1
2022-08-17T13:56:49.685Z,26
2022-08-17T14:06:53.551Z,25.4
2022-08-17T14:16:53.636Z,26
2022-08-17T14:26:55.624Z,25.3
2022-08-17T14:36:58.072Z,25.7
2022-08-17T14:47:00.678Z,25.8
2022-08-17T14:57:22.330Z,25.4
2022-08-17T15:07:05.221Z,25.4
2022-08-17T15:17:07.295Z,25.4
2022-08-17T15:27:09.209Z,24.9
2022-08-17T15:37:11.403Z,24.8
2022-08-17T15:57:15.665Z,24.6
2022-08-17T16:07:18.802Z,24.3
2022-08-17T16:17:29.584Z,24.4
2022-08-17T16:27:23.225Z,24.6
2022-08-17T16:37:24.879Z,24.7
2022-08-17T16:47:27.220Z,24.6
2022-08-17T16:57:29.214Z,24.2
2022-08-17T16:57:36.136Z,24.2
2022-08-17T17:07:38.695Z,24.1
2022-08-17T17:17:40.557Z,24.2
2022-08-17T17:27:43.160Z,23.9
2022-08-17T17:37:45.099Z,23.5
2022-08-17T17:47:46.887Z,23.6
2022-08-17T18:27:55.530Z,23
2022-08-17T18:47:59.812Z,22.4
2022-08-17T19:08:03.989Z,21.9
2022-08-17T19:18:05.800Z,21.7
2022-08-17T19:38:12.786Z,21.3
2022-08-17T19:48:12.300Z,21.1
2022-08-17T19:58:18.015Z,20.7
2022-08-17T20:08:17.062Z,20.7
2022-08-17T20:18:18.771Z,20.5
2022-08-17T20:28:20.775Z,20.1
2022-08-17T20:38:22.724Z,19.9
2022-08-17T20:48:36.652Z,19.9
2022-08-17T20:58:29.914Z,19.9
2022-08-17T21:08:30.008Z,19.8
2022-08-17T21:18:31.446Z,19.7
2022-08-17T21:28:34.448Z,19.5
2022-08-17T21:38:35.494Z,19.3
2022-08-17T21:48:38.081Z,19.2
2022-08-17T21:58:40.430Z,19.1
2022-08-17T22:08:42.455Z,19
2022-08-17T22:18:44.890Z,18.9
2022-08-17T22:28:46.575Z,19
2022-08-17T22:38:48.408Z,18.8
2022-08-17T22:48:50.299Z,18.7
2022-08-17T22:58:59.024Z,18.5
2022-08-17T23:08:55.211Z,18.3
2022-08-17T23:18:57.010Z,18.1
2022-08-17T23:39:01.258Z,17.9
2022-08-17T23:59:05.515Z,17.9
